Time;durP1;ratioP1;P1;durP2;ratioP2;P2;SDS_P1;SDS_P2;PMS_P1;PMS_P2;Temp;Humidity;BMP_temperature;BMP_pressure;BME280_temperature;BME280_humidity;BME280_pressure;Samples;Min_cycle;Max_cycle;Signal;HPM_P1;HPM_P2
2023/12/09 00:00:44;;;;;;;21.07;6.93;;;;;;;;;;5049882;28;20536;-72
2023/12/09 00:03:11;;;;;;;21.70;6.27;;;9.10;99.90;;;;;;5051037;28;20478;-72
2023/12/09 00:05:37;;;;;;;31.43;6.33;;;9.00;99.90;;;;;;5051616;28;21090;-73
2023/12/09 00:08:05;;;;;;;22.37;7.10;;;8.90;99.90;;;;;;5053775;28;20506;-73
2023/12/09 00:10:32;;;;;;;18.87;6.87;;;9.00;99.90;;;;;;5040679;28;20476;-73
2023/12/09 00:12:58;;;;;;;26.83;7.53;;;8.90;99.90;;;;;;5035351;28;20689;-77
2023/12/09 00:15:25;;;;;;;36.27;7.37;;;9.00;99.90;;;;;;5037177;28;20479;-79
2023/12/09 00:17:53;;;;;;;23.47;6.73;;;8.90;99.90;;;;;;5036472;28;20529;-81
2023/12/09 00:20:20;;;;;;;54.30;9.10;;;8.80;99.90;;;;;;5036862;28;20479;-80
2023/12/09 00:22:47;;;;;;;43.00;7.30;;;8.80;99.90;;;;;;5040822;28;21078;-74
2023/12/09 00:25:14;;;;;;;35.80;6.93;;;8.80;99.90;;;;;;5048646;28;20545;-73
2023/12/09 00:27:41;;;;;;;24.40;7.53;;;8.80;99.90;;;;;;5043407;28;20514;-74
2023/12/09 00:30:08;;;;;;;24.90;5.40;;;8.80;99.90;;;;;;5038088;28;20676;-73
2023/12/09 00:32:35;;;;;;;28.97;5.67;;;8.80;99.90;;;;;;5044137;28;20484;-74
2023/12/09 00:35:04;;;;;;;29.87;7.40;;;8.90;99.90;;;;;;5052976;28;20543;-73
2023/12/09 00:37:31;;;;;;;35.27;5.80;;;8.90;99.90;;;;;;5050196;28;20533;-74
2023/12/09 00:39:58;;;;;;;23.73;5.30;;;8.90;99.90;;;;;;5053355;28;20869;-74
2023/12/09 00:42:25;;;;;;;25.47;4.63;;;8.90;99.90;;;;;;5054750;28;21029;-75
2023/12/09 00:44:52;;;;;;;15.97;5.53;;;8.90;99.90;;;;;;5056898;28;20980;-75
2023/12/09 00:47:19;;;;;;;28.20;5.50;;;8.90;99.90;;;;;;5054324;28;20479;-74
2023/12/09 00:49:46;;;;;;;24.93;6.27;;;8.90;99.90;;;;;;5042754;28;20474;-74
2023/12/09 00:52:14;;;;;;;17.53;4.17;;;8.90;99.90;;;;;;5053891;28;20528;-74
2023/12/09 00:54:41;;;;;;;25.90;5.90;;;8.90;99.90;;;;;;5046543;28;20482;-74
2023/12/09 00:57:08;;;;;;;24.30;6.17;;;8.90;99.90;;;;;;5057606;28;20474;-73
2023/12/09 00:59:35;;;;;;;35.57;6.97;;;8.90;99.90;;;;;;5054646;28;20529;-73
2023/12/09 01:02:02;;;;;;;22.80;5.80;;;8.90;99.90;;;;;;5055780;28;20479;-74
2023/12/09 01:04:29;;;;;;;13.67;5.17;;;8.90;99.90;;;;;;5055702;28;20490;-73
2023/12/09 01:06:56;;;;;;;19.73;5.73;;;;;;;;;;5056663;28;20894;-73
2023/12/09 01:09:24;;;;;;;38.13;7.87;;;8.80;99.90;;;;;;5055637;28;20528;-74
2023/12/09 01:11:51;;;;;;;22.53;5.80;;;8.90;99.90;;;;;;5054018;28;21309;-73
2023/12/09 01:14:18;;;;;;;28.90;6.30;;;8.90;99.90;;;;;;5057045;28;20673;-73
2023/12/09 01:16:45;;;;;;;16.77;5.53;;;;;;;;;;5056671;28;20554;-73
2023/12/09 01:19:12;;;;;;;14.63;4.80;;;8.90;99.90;;;;;;5027739;28;21000;-72
2023/12/09 01:21:39;;;;;;;32.93;6.30;;;8.90;99.90;;;;;;5052097;28;20479;-73
2023/12/09 01:24:06;;;;;;;22.90;5.30;;;8.80;99.90;;;;;;5055708;28;20536;-73
2023/12/09 01:26:34;;;;;;;32.20;6.33;;;8.80;99.90;;;;;;5055809;28;20490;-73
2023/12/09 01:29:03;;;;;;;12.53;4.97;;;8.80;99.90;;;;;;5055504;28;20512;-73
2023/12/09 01:31:30;;;;;;;24.90;7.23;;;8.90;99.90;;;;;;5056019;28;20494;-73
2023/12/09 01:33:56;;;;;;;31.00;6.03;;;9.00;99.90;;;;;;5049662;28;20492;-72
2023/12/09 01:36:23;;;;;;;27.23;6.33;;;9.00;99.90;;;;;;5042241;28;20478;-73
2023/12/09 01:38:50;;;;;;;31.30;5.93;;;9.10;99.90;;;;;;5046036;28;20479;-73
2023/12/09 01:41:17;;;;;;;26.83;6.30;;;9.00;99.90;;;;;;5055065;28;20475;-73
2023/12/09 01:43:49;;;;;;;21.60;4.83;;;9.20;99.90;;;;;;5057670;28;20547;-73
2023/12/09 01:46:18;;;;;;;15.87;5.07;;;9.30;99.90;;;;;;5027322;28;20866;-73
2023/12/09 01:48:45;;;;;;;24.23;5.63;;;9.30;99.90;;;;;;5053800;28;20473;-74
2023/12/09 01:51:13;;;;;;;19.70;5.67;;;9.40;99.90;;;;;;5053873;28;20815;-73
2023/12/09 01:53:40;;;;;;;18.17;4.90;;;9.50;99.90;;;;;;5055168;28;20540;-73
2023/12/09 01:56:11;;;;;;;17.57;5.43;;;9.50;99.90;;;;;;5054793;28;21689;-73
2023/12/09 01:58:38;;;;;;;16.67;5.03;;;9.50;99.90;;;;;;5033802;28;20478;-73
2023/12/09 02:01:07;;;;;;;23.93;4.70;;;9.50;99.90;;;;;;5054659;28;21094;-73
2023/12/09 02:03:34;;;;;;;13.50;4.93;;;9.40;99.90;;;;;;5052434;28;20486;-72
2023/12/09 02:06:01;;;;;;;29.87;5.40;;;9.30;99.90;;;;;;5053690;28;20552;-72
2023/12/09 02:08:28;;;;;;;20.80;4.40;;;9.20;99.90;;;;;;5055186;28;20479;-72
2023/12/09 02:11:06;;;;;;;21.53;4.83;;;9.20;99.90;;;;;;5054591;28;20471;-73
2023/12/09 02:13:43;;;;;;;10.10;4.67;;;9.20;99.90;;;;;;5054108;28;21005;-72
2023/12/09 02:16:16;;;;;;;22.87;5.53;;;9.00;99.90;;;;;;5054931;28;20996;-73
2023/12/09 02:18:45;;;;;;;17.00;5.60;;;8.90;99.90;;;;;;5055147;28;20520;-72
2023/12/09 02:21:12;;;;;;;19.03;4.67;;;8.80;99.90;;;;;;5054010;28;20460;-73
2023/12/09 02:23:40;;;;;;;21.63;5.37;;;8.80;99.90;;;;;;5054899;28;20511;-73
2023/12/09 02:26:14;;;;;;;27.77;6.60;;;8.70;99.90;;;;;;5053021;28;20515;-73
2023/12/09 02:28:49;;;;;;;20.20;5.60;;;8.60;99.90;;;;;;5046487;28;21163;-73
2023/12/09 02:31:23;;;;;;;35.67;5.03;;;8.50;99.90;;;;;;5053309;28;20474;-73
2023/12/09 02:33:50;;;;;;;34.77;5.60;;;8.50;99.90;;;;;;5045687;28;22179;-73
2023/12/09 02:36:22;;;;;;;22.10;5.00;;;8.50;99.90;;;;;;5027122;28;20556;-73
2023/12/09 02:38:52;;;;;;;31.17;5.80;;;8.50;99.90;;;;;;5042467;28;20486;-73
2023/12/09 02:41:20;;;;;;;26.97;7.13;;;8.50;99.90;;;;;;5047840;28;20478;-73
2023/12/09 02:43:48;;;;;;;23.87;5.23;;;8.40;99.90;;;;;;5055229;28;20475;-73
2023/12/09 02:46:15;;;;;;;15.73;4.30;;;8.30;99.90;;;;;;5043733;28;21440;-73
2023/12/09 02:48:41;;;;;;;24.63;7.30;;;8.30;99.90;;;;;;5054685;28;20543;-73
2023/12/09 02:51:09;;;;;;;21.57;6.80;;;8.20;99.90;;;;;;5055306;28;20893;-73
2023/12/09 02:53:36;;;;;;;38.13;7.60;;;8.20;99.90;;;;;;5052747;28;20900;-73
2023/12/09 02:56:04;;;;;;;22.50;6.10;;;8.20;99.90;;;;;;5053972;28;20569;-73
2023/12/09 02:58:31;;;;;;;22.73;6.10;;;8.20;99.90;;;;;;5043661;28;20479;-72
2023/12/09 03:00:58;;;;;;;25.67;6.80;;;8.20;99.90;;;;;;5052875;28;20510;-73
2023/12/09 03:03:25;;;;;;;30.67;7.93;;;8.20;99.90;;;;;;5053767;28;20471;-73
2023/12/09 03:05:52;;;;;;;15.67;6.40;;;8.20;99.90;;;;;;5055073;28;21458;-73
2023/12/09 03:08:19;;;;;;;24.80;7.27;;;8.20;99.90;;;;;;5045195;28;20536;-72
2023/12/09 03:10:45;;;;;;;29.63;7.03;;;8.20;99.90;;;;;;5053981;28;20489;-73
2023/12/09 03:13:14;;;;;;;24.30;6.70;;;8.10;99.90;;;;;;5052943;28;20548;-73
2023/12/09 03:15:41;;;;;;;26.30;8.20;;;;;;;;;;5055435;28;20539;-73
2023/12/09 03:18:08;;;;;;;42.53;8.60;;;8.10;99.90;;;;;;5054828;28;20487;-73
2023/12/09 03:20:35;;;;;;;20.90;6.10;;;8.10;99.90;;;;;;5051611;28;20529;-73
2023/12/09 03:23:02;;;;;;;22.50;6.77;;;8.10;99.90;;;;;;5053193;28;20483;-73
2023/12/09 03:25:29;;;;;;;36.97;6.27;;;8.10;99.90;;;;;;5052055;28;20551;-73
2023/12/09 03:27:56;;;;;;;15.33;6.20;;;8.10;99.90;;;;;;5054516;28;20536;-74
2023/12/09 03:30:24;;;;;;;27.00;5.50;;;8.10;99.90;;;;;;5053431;28;20475;-74
2023/12/09 03:32:51;;;;;;;20.10;5.80;;;8.10;99.90;;;;;;5049798;28;20480;-74
2023/12/09 03:35:19;;;;;;;26.07;6.90;;;8.20;99.90;;;;;;5056318;28;20509;-74
2023/12/09 03:37:45;;;;;;;19.77;6.17;;;8.20;99.90;;;;;;5059564;28;20475;-74
2023/12/09 03:40:13;;;;;;;28.53;7.20;;;8.20;99.90;;;;;;5059857;28;21016;-74
2023/12/09 03:42:40;;;;;;;31.47;7.70;;;8.20;99.90;;;;;;5057042;28;20536;-74
2023/12/09 03:45:07;;;;;;;29.60;7.37;;;8.20;99.90;;;;;;5057115;28;20552;-74
2023/12/09 03:47:36;;;;;;;23.00;6.87;;;8.10;99.90;;;;;;5059720;28;20475;-74
2023/12/09 03:50:03;;;;;;;28.63;8.27;;;8.10;99.90;;;;;;5046333;28;20548;-74
2023/12/09 03:52:30;;;;;;;60.53;9.80;;;8.10;99.90;;;;;;5044753;28;20471;-74
2023/12/09 03:54:57;;;;;;;26.50;7.00;;;8.00;99.90;;;;;;5056888;28;20534;-74
2023/12/09 03:57:24;;;;;;;20.03;8.27;;;8.00;99.90;;;;;;5059246;28;20896;-74
2023/12/09 03:59:51;;;;;;;34.23;7.10;;;8.10;99.90;;;;;;5058026;28;20487;-74
2023/12/09 04:02:19;;;;;;;24.53;6.50;;;8.10;99.90;;;;;;5045033;28;20877;-74
2023/12/09 04:04:47;;;;;;;22.97;8.27;;;8.20;99.90;;;;;;5046463;28;20502;-74
2023/12/09 04:07:14;;;;;;;18.83;6.90;;;8.30;99.90;;;;;;5057966;28;20556;-74
2023/12/09 04:09:42;;;;;;;28.67;7.87;;;8.30;99.90;;;;;;5059852;28;20475;-74
2023/12/09 04:12:09;;;;;;;16.93;7.77;;;;;;;;;;5058039;28;20859;-74
2023/12/09 04:14:36;;;;;;;22.80;8.70;;;8.30;99.90;;;;;;5058999;28;20734;-74
2023/12/09 04:17:04;;;;;;;26.73;10.17;;;8.30;99.90;;;;;;5052138;28;20548;-74
2023/12/09 04:19:31;;;;;;;24.50;10.13;;;8.20;99.90;;;;;;5037015;28;20901;-74
2023/12/09 04:21:59;;;;;;;51.33;9.90;;;8.30;99.90;;;;;;5052972;28;20528;-74
2023/12/09 04:24:26;;;;;;;17.17;6.50;;;8.30;99.90;;;;;;5056798;28;20492;-75
2023/12/09 04:26:53;;;;;;;42.80;9.77;;;8.30;99.90;;;;;;5059350;28;21036;-75
2023/12/09 04:29:20;;;;;;;27.40;10.30;;;8.40;99.90;;;;;;5057348;28;20513;-74
2023/12/09 04:31:47;;;;;;;28.23;10.07;;;8.40;99.90;;;;;;5047703;28;20482;-74
2023/12/09 04:34:14;;;;;;;36.47;9.10;;;8.50;99.90;;;;;;5048298;28;20480;-75
2023/12/09 04:36:40;;;;;;;21.93;8.50;;;8.60;99.90;;;;;;5060049;28;20558;-75
2023/12/09 04:39:10;;;;;;;22.57;9.43;;;8.60;99.90;;;;;;5059486;28;20544;-74
2023/12/09 04:41:36;;;;;;;33.97;12.27;;;8.60;99.90;;;;;;5054501;28;20487;-75
2023/12/09 04:44:03;;;;;;;23.70;9.43;;;8.60;99.90;;;;;;5059608;28;21072;-74
2023/12/09 04:46:31;;;;;;;33.13;11.83;;;8.60;99.90;;;;;;5058712;28;20880;-74
2023/12/09 04:48:58;;;;;;;32.47;8.40;;;8.60;99.90;;;;;;5058092;28;20474;-75
2023/12/09 04:51:25;;;;;;;27.23;10.37;;;8.70;99.90;;;;;;5053626;28;20560;-74
2023/12/09 04:53:52;;;;;;;27.73;10.23;;;8.70;99.90;;;;;;5059300;28;20981;-74
2023/12/09 04:56:20;;;;;;;23.93;8.80;;;8.80;99.90;;;;;;5057543;28;20483;-74
2023/12/09 04:58:47;;;;;;;24.00;10.00;;;8.80;99.90;;;;;;5056922;28;20487;-74
2023/12/09 05:01:14;;;;;;;40.60;9.50;;;8.70;99.90;;;;;;5057038;28;20471;-74
2023/12/09 05:03:42;;;;;;;25.10;10.27;;;8.80;99.90;;;;;;5057952;28;20494;-74
2023/12/09 05:06:09;;;;;;;16.57;9.07;;;8.70;99.90;;;;;;5058785;28;20528;-74
2023/12/09 05:08:36;;;;;;;33.20;11.37;;;8.70;99.90;;;;;;5058758;28;20540;-73
2023/12/09 05:11:03;;;;;;;19.77;8.83;;;8.70;99.90;;;;;;5053413;28;20836;-73
2023/12/09 05:13:31;;;;;;;26.63;11.03;;;8.60;99.90;;;;;;5057757;28;20485;-74
2023/12/09 05:15:58;;;;;;;44.10;12.63;;;8.50;99.90;;;;;;5059032;28;20901;-74
2023/12/09 05:18:25;;;;;;;14.73;4.80;;;8.50;99.90;;;;;;5060681;28;20486;-74
2023/12/09 05:20:52;;;;;;;19.93;6.90;;;8.50;99.90;;;;;;5043129;28;20486;-75
2023/12/09 05:23:19;;;;;;;21.03;6.70;;;8.60;99.90;;;;;;5062329;28;20807;-74
2023/12/09 05:25:46;;;;;;;15.00;6.80;;;8.70;99.90;;;;;;5061455;28;20478;-75
2023/12/09 05:28:13;;;;;;;26.47;9.97;;;;;;;;;;5062453;28;20475;-74
2023/12/09 05:30:43;;;;;;;12.00;6.57;;;8.70;99.90;;;;;;5053611;28;20486;-75
2023/12/09 05:33:10;;;;;;;7.53;2.90;;;8.70;99.90;;;;;;5049348;28;20534;-73
2023/12/09 05:35:37;;;;;;;36.83;9.27;;;8.60;99.90;;;;;;5062270;28;20487;-74
2023/12/09 05:38:04;;;;;;;21.47;8.90;;;8.60;99.90;;;;;;5047141;28;20486;-75
2023/12/09 05:40:31;;;;;;;22.07;8.07;;;8.60;99.90;;;;;;5059513;28;20475;-75
2023/12/09 05:42:58;;;;;;;33.83;10.40;;;8.60;99.90;;;;;;5060843;28;20487;-75
2023/12/09 05:45:24;;;;;;;21.23;9.27;;;8.60;99.90;;;;;;5062650;28;20528;-75
2023/12/09 05:47:53;;;;;;;18.20;7.30;;;8.60;99.90;;;;;;5063020;28;20475;-76
2023/12/09 05:50:20;;;;;;;23.13;6.50;;;8.70;99.90;;;;;;5060559;28;20475;-76
2023/12/09 05:52:47;;;;;;;12.27;4.93;;;8.70;99.90;;;;;;5061574;28;21270;-76
2023/12/09 05:55:16;;;;;;;13.03;5.23;;;8.70;99.90;;;;;;5059440;28;20483;-75
2023/12/09 05:57:43;;;;;;;20.33;8.17;;;8.60;99.90;;;;;;5060391;28;20475;-75
2023/12/09 06:00:12;;;;;;;21.83;6.23;;;8.70;99.90;;;;;;5048493;28;20490;-75
2023/12/09 06:02:40;;;;;;;16.90;7.20;;;8.70;99.90;;;;;;5050982;28;20476;-75
2023/12/09 06:05:10;;;;;;;21.70;6.80;;;8.60;99.90;;;;;;5056051;28;20478;-75
2023/12/09 06:07:37;;;;;;;16.73;7.57;;;8.60;99.90;;;;;;5060842;28;20491;-74
2023/12/09 06:10:05;;;;;;;29.73;7.90;;;8.60;99.90;;;;;;5061152;28;20616;-75
2023/12/09 06:12:32;;;;;;;25.37;7.60;;;8.70;99.90;;;;;;5059979;28;20475;-74
2023/12/09 06:14:59;;;;;;;18.57;7.07;;;8.60;99.90;;;;;;5058227;28;20540;-75
2023/12/09 06:17:26;;;;;;;24.60;9.40;;;8.50;99.90;;;;;;5060810;28;20525;-74
2023/12/09 06:19:53;;;;;;;22.30;9.70;;;8.60;99.90;;;;;;5058902;28;20615;-71
2023/12/09 06:22:22;;;;;;;17.30;6.87;;;8.50;99.90;;;;;;5036281;28;20576;-76
2023/12/09 06:24:49;;;;;;;23.17;8.50;;;8.30;99.90;;;;;;5054360;28;20476;-74
2023/12/09 06:27:16;;;;;;;19.97;5.63;;;8.30;99.90;;;;;;5061285;28;20486;-74
2023/12/09 06:29:45;;;;;;;19.60;6.47;;;8.40;99.90;;;;;;5059945;28;20540;-74
2023/12/09 06:32:13;;;;;;;12.40;6.33;;;8.50;99.90;;;;;;5060079;28;20551;-74
2023/12/09 06:34:40;;;;;;;19.80;8.30;;;8.40;99.90;;;;;;5060817;28;20479;-74
2023/12/09 06:37:07;;;;;;;14.20;7.60;;;8.40;99.90;;;;;;5060531;28;20491;-74
2023/12/09 06:39:36;;;;;;;23.73;7.43;;;8.50;99.90;;;;;;5058772;28;20570;-77
2023/12/09 06:42:03;;;;;;;18.43;7.67;;;8.50;99.90;;;;;;5060167;28;20540;-74
2023/12/09 06:44:30;;;;;;;35.17;9.00;;;8.50;99.90;;;;;;5059067;28;20475;-74
2023/12/09 06:46:56;;;;;;;16.90;7.47;;;8.50;99.90;;;;;;5060040;28;20534;-74
2023/12/09 06:49:23;;;;;;;8.77;5.20;;;8.50;99.90;;;;;;5060085;28;20938;-76
2023/12/09 06:51:50;;;;;;;20.43;8.07;;;8.50;99.90;;;;;;5050353;28;20556;-74
2023/12/09 06:54:17;;;;;;;19.37;7.07;;;8.50;99.90;;;;;;5059099;28;20577;-74
2023/12/09 06:56:46;;;;;;;13.17;6.40;;;8.50;99.90;;;;;;5061052;28;20489;-74
2023/12/09 06:59:12;;;;;;;23.17;7.00;;;8.50;99.90;;;;;;5059013;28;20486;-74
2023/12/09 07:01:39;;;;;;;19.17;7.50;;;8.50;99.90;;;;;;5057888;28;20487;-74
2023/12/09 07:04:09;;;;;;;51.47;8.73;;;8.50;99.90;;;;;;5058786;28;20973;-75
2023/12/09 07:06:36;;;;;;;16.73;6.83;;;8.50;99.90;;;;;;5059613;28;20618;-74
2023/12/09 07:09:03;;;;;;;13.67;6.87;;;8.60;99.90;;;;;;5059633;28;20892;-75
2023/12/09 07:11:30;;;;;;;16.97;8.70;;;8.50;99.90;;;;;;5060570;28;20896;-74
2023/12/09 07:13:58;;;;;;;17.90;6.10;;;8.40;99.90;;;;;;5060708;28;20536;-75
2023/12/09 07:16:25;;;;;;;16.87;4.70;;;8.40;99.90;;;;;;5060910;28;20479;-75
2023/12/09 07:18:58;;;;;;;16.70;5.03;;;8.30;99.90;;;;;;5059897;28;21507;-74
2023/12/09 07:21:25;;;;;;;11.83;5.90;;;8.30;99.90;;;;;;5060164;28;20544;-73
2023/12/09 07:23:52;;;;;;;20.43;5.60;;;8.30;99.90;;;;;;5060953;28;20538;-75
2023/12/09 07:26:19;;;;;;;8.17;3.90;;;8.30;99.90;;;;;;5060132;28;20524;-75
2023/12/09 07:28:46;;;;;;;12.00;4.47;;;;;;;;;;5060254;28;20479;-75
2023/12/09 07:31:15;;;;;;;15.33;4.57;;;8.30;99.90;;;;;;5060786;28;20564;-74
2023/12/09 07:33:42;;;;;;;13.77;6.17;;;8.20;99.90;;;;;;5060234;28;21014;-73
2023/12/09 07:36:09;;;;;;;17.77;5.93;;;8.20;99.90;;;;;;5060994;28;20976;-74
2023/12/09 07:38:36;;;;;;;11.10;4.20;;;8.30;99.90;;;;;;5060115;28;20479;-74
2023/12/09 07:41:03;;;;;;;12.90;6.20;;;8.40;99.90;;;;;;5053695;28;20874;-74
2023/12/09 07:43:31;;;;;;;10.63;5.30;;;8.40;99.90;;;;;;5048170;28;20484;-73
2023/12/09 07:45:58;;;;;;;8.47;4.60;;;8.20;99.90;;;;;;5054058;28;21348;-74
2023/12/09 07:48:27;;;;;;;12.87;6.70;;;8.20;99.90;;;;;;5059589;28;20508;-74
2023/12/09 07:50:54;;;;;;;11.60;4.57;;;8.20;99.90;;;;;;5060100;28;20491;-73
2023/12/09 07:53:21;;;;;;;32.80;8.60;;;8.10;99.90;;;;;;5060794;28;21087;-74
2023/12/09 07:55:48;;;;;;;19.43;7.20;;;8.10;99.90;;;;;;5044277;28;20494;-73
2023/12/09 07:58:15;;;;;;;12.00;7.10;;;8.00;99.90;;;;;;5060088;28;20548;-73
2023/12/09 08:00:42;;;;;;;13.90;7.27;;;8.10;99.90;;;;;;5059498;28;21251;-73
2023/12/09 08:03:09;;;;;;;15.97;5.70;;;8.10;99.90;;;;;;5057250;28;20517;-74
2023/12/09 08:05:38;;;;;;;12.50;5.60;;;8.10;99.90;;;;;;5060243;28;20532;-74
2023/12/09 08:08:05;;;;;;;13.30;5.70;;;8.20;99.90;;;;;;5059087;28;20471;-74
2023/12/09 08:10:32;;;;;;;10.53;4.03;;;8.10;99.90;;;;;;5060319;28;20537;-74
2023/12/09 08:12:59;;;;;;;6.73;3.60;;;8.20;99.90;;;;;;5060095;28;20459;-74
2023/12/09 08:15:26;;;;;;;16.17;5.40;;;8.20;99.90;;;;;;5055565;28;20965;-73
2023/12/09 08:17:53;;;;;;;14.70;6.07;;;8.10;99.90;;;;;;5060281;28;20513;-74
2023/12/09 08:20:20;;;;;;;9.90;4.80;;;8.20;99.90;;;;;;5058921;28;20475;-74
2023/12/09 08:22:48;;;;;;;13.53;5.10;;;8.20;99.90;;;;;;5029997;28;20483;-73
2023/12/09 08:25:15;;;;;;;11.60;5.47;;;8.20;99.90;;;;;;5060331;28;20471;-73
2023/12/09 08:27:44;;;;;;;15.80;6.63;;;8.00;99.90;;;;;;5059640;28;20491;-72
2023/12/09 08:30:12;;;;;;;17.50;6.87;;;8.00;99.90;;;;;;5060121;28;20489;-74
2023/12/09 08:32:41;;;;;;;11.03;5.93;;;8.00;99.90;;;;;;5059419;28;20475;-74
2023/12/09 08:35:09;;;;;;;21.57;6.50;;;8.10;99.90;;;;;;5059496;28;20897;-75
2023/12/09 08:37:36;;;;;;;25.60;8.33;;;8.10;99.90;;;;;;5055692;28;20549;-72
2023/12/09 08:40:09;;;;;;;15.77;5.80;;;8.00;99.90;;;;;;5060266;28;20490;-72
2023/12/09 08:42:37;;;;;;;10.97;7.03;;;8.00;99.90;;;;;;5055671;28;20848;-72
2023/12/09 08:45:04;;;;;;;10.87;5.77;;;7.90;99.90;;;;;;5060383;28;20552;-68
2023/12/09 08:47:31;;;;;;;11.90;4.93;;;7.90;99.90;;;;;;5059933;28;20471;-73
2023/12/09 08:49:58;;;;;;;10.03;6.60;;;7.80;99.90;;;;;;5058727;28;20528;-72
2023/12/09 08:52:25;;;;;;;8.83;5.80;;;7.80;99.90;;;;;;5060732;28;20467;-73
2023/12/09 08:54:52;;;;;;;16.00;5.97;;;7.90;99.90;;;;;;5058591;28;20884;-73
2023/12/09 08:57:20;;;;;;;12.40;5.63;;;7.90;99.90;;;;;;5062467;28;20487;-72
2023/12/09 08:59:47;;;;;;;13.63;6.30;;;8.00;99.90;;;;;;5060603;28;20479;-72
2023/12/09 09:02:14;;;;;;;17.10;5.70;;;8.10;99.90;;;;;;5059546;28;20470;-73
2023/12/09 09:04:41;;;;;;;26.93;6.47;;;8.10;99.90;;;;;;5062518;28;21012;-72
2023/12/09 09:07:08;;;;;;;14.63;5.20;;;8.10;99.90;;;;;;5060066;28;20552;-73
2023/12/09 09:09:35;;;;;;;19.43;6.30;;;8.20;99.90;;;;;;5062027;28;21514;-72
2023/12/09 09:12:02;;;;;;;23.73;7.50;;;8.20;99.90;;;;;;5050599;28;20474;-72
2023/12/09 09:14:30;;;;;;;14.77;6.07;;;8.20;99.90;;;;;;5062169;28;20491;-72
2023/12/09 09:16:57;;;;;;;28.43;5.90;;;8.30;99.90;;;;;;5062447;28;20483;-72
2023/12/09 09:19:24;;;;;;;13.37;6.17;;;8.20;99.90;;;;;;5058789;28;20536;-73
2023/12/09 09:21:52;;;;;;;10.17;6.30;;;8.10;99.90;;;;;;5038383;28;21009;-72
2023/12/09 09:24:19;;;;;;;8.70;5.03;;;8.20;99.90;;;;;;5057634;28;20487;-72
2023/12/09 09:26:46;;;;;;;13.47;5.07;;;8.20;99.90;;;;;;5062255;28;20490;-73
2023/12/09 09:29:14;;;;;;;14.73;6.40;;;8.20;99.90;;;;;;5062270;28;20552;-72
2023/12/09 09:31:42;;;;;;;8.43;5.27;;;8.20;99.90;;;;;;5062639;28;21005;-73
2023/12/09 09:34:09;;;;;;;12.50;4.20;;;8.20;99.90;;;;;;5062416;28;20540;-73
2023/12/09 09:36:36;;;;;;;38.13;8.20;;;8.00;99.90;;;;;;5061809;28;20559;-72
2023/12/09 09:39:03;;;;;;;11.20;5.20;;;8.00;99.90;;;;;;5060672;28;20540;-72
2023/12/09 09:41:33;;;;;;;6.73;4.67;;;8.00;99.90;;;;;;5059777;28;20486;-72
2023/12/09 09:44:08;;;;;;;20.13;4.87;;;7.90;99.90;;;;;;5051092;28;20479;-72
2023/12/09 09:46:36;;;;;;;23.87;5.57;;;7.90;99.90;;;;;;5060884;28;20470;-71
2023/12/09 09:49:05;;;;;;;8.30;4.00;;;7.80;99.90;;;;;;5061818;28;20471;-70
2023/12/09 09:51:32;;;;;;;11.03;5.30;;;;;;;;;;5062263;28;20532;-72
2023/12/09 09:54:08;;;;;;;14.30;4.47;;;7.80;99.90;;;;;;5057616;28;20540;-72
2023/12/09 09:56:35;;;;;;;9.67;3.40;;;7.80;99.90;;;;;;5060869;28;20494;-73
2023/12/09 09:59:03;;;;;;;10.47;4.10;;;7.90;99.90;;;;;;5061172;28;20480;-73
2023/12/09 10:01:32;;;;;;;16.20;4.10;;;8.00;99.90;;;;;;5049527;28;20472;-73
2023/12/09 10:03:59;;;;;;;23.57;4.40;;;;;;;;;;5060185;28;21962;-73
2023/12/09 10:06:29;;;;;;;8.53;2.73;;;8.20;99.90;;;;;;5061828;28;20529;-73
2023/12/09 10:08:56;;;;;;;13.20;4.23;;;8.30;99.90;;;;;;5056527;28;21007;-71
2023/12/09 10:11:23;;;;;;;10.30;2.17;;;8.30;99.90;;;;;;5050150;28;20471;-72
2023/12/09 10:13:50;;;;;;;2.70;2.40;;;8.30;99.90;;;;;;5060498;28;21044;-72
2023/12/09 10:16:17;;;;;;;13.57;4.40;;;8.40;99.90;;;;;;5045611;28;20904;-72
2023/12/09 10:18:46;;;;;;;3.77;2.63;;;8.40;99.90;;;;;;5045930;28;20499;-73
2023/12/09 10:21:13;;;;;;;7.07;2.03;;;8.30;99.90;;;;;;5061543;28;20989;-72
2023/12/09 10:23:42;;;;;;;5.00;2.80;;;8.40;99.90;;;;;;5059252;28;20552;-73
2023/12/09 10:26:09;;;;;;;15.47;3.70;;;8.30;99.90;;;;;;5060614;28;20515;-72
2023/12/09 10:28:36;;;;;;;13.57;4.97;;;8.40;99.90;;;;;;5060215;28;20511;-72
2023/12/09 10:31:03;;;;;;;8.17;3.30;;;8.40;99.90;;;;;;5061150;28;20475;-73
2023/12/09 10:33:30;;;;;;;22.73;3.37;;;8.40;99.90;;;;;;5061357;28;20542;-72
2023/12/09 10:35:57;;;;;;;12.90;2.93;;;8.40;99.90;;;;;;5061329;28;20965;-73
2023/12/09 10:38:24;;;;;;;26.93;4.13;;;8.40;99.90;;;;;;5060840;28;20475;-68
2023/12/09 10:40:54;;;;;;;5.83;2.93;;;8.30;99.90;;;;;;5062202;28;20539;-71
2023/12/09 10:43:21;;;;;;;17.83;4.00;;;8.30;99.90;;;;;;5049799;28;21018;-69
2023/12/09 10:45:48;;;;;;;20.80;3.40;;;8.30;99.90;;;;;;5061419;28;21209;-72
2023/12/09 10:48:15;;;;;;;11.10;4.10;;;8.40;99.90;;;;;;5061181;28;21238;-70
2023/12/09 10:50:46;;;;;;;21.07;3.93;;;8.40;99.90;;;;;;5061271;28;20528;-70
2023/12/09 10:53:12;;;;;;;13.53;3.07;;;8.30;99.90;;;;;;5060190;28;20541;-70
2023/12/09 10:55:41;;;;;;;17.40;3.97;;;8.40;99.90;;;;;;5050769;28;20479;-70
2023/12/09 10:58:11;;;;;;;10.17;3.00;;;8.40;99.90;;;;;;5040822;28;20493;-71
2023/12/09 11:00:38;;;;;;;17.00;2.80;;;8.50;99.90;;;;;;5056486;28;20494;-71
2023/12/09 11:03:06;;;;;;;10.50;3.80;;;8.40;99.90;;;;;;5059880;28;20482;-70
2023/12/09 11:05:40;;;;;;;7.30;2.30;;;8.40;99.90;;;;;;5056171;28;20471;-71
2023/12/09 11:08:11;;;;;;;13.93;3.73;;;8.50;99.90;;;;;;5058338;28;21181;-72
2023/12/09 11:10:38;;;;;;;11.17;3.83;;;8.60;99.90;;;;;;5059896;28;20483;-71
2023/12/09 11:13:05;;;;;;;25.97;4.67;;;;;;;;;;5060736;28;20474;-71
2023/12/09 11:15:34;;;;;;;11.03;3.47;;;8.70;99.90;;;;;;5059411;28;20482;-71
2023/12/09 11:18:08;;;;;;;8.03;3.20;;;8.70;99.90;;;;;;5059447;28;20514;-71
2023/12/09 11:20:39;;;;;;;9.20;3.40;;;8.80;99.90;;;;;;5059317;28;20478;-71
2023/12/09 11:23:08;;;;;;;15.00;3.40;;;8.80;99.90;;;;;;5059243;28;20528;-70
2023/12/09 11:25:40;;;;;;;16.60;3.53;;;8.80;99.90;;;;;;5046686;28;20584;-72
2023/12/09 11:28:09;;;;;;;15.80;2.73;;;8.70;99.90;;;;;;5059121;28;21197;-71
2023/12/09 11:30:45;;;;;;;6.63;1.93;;;8.80;99.90;;;;;;5047638;28;20491;-71
2023/12/09 11:33:12;;;;;;;10.10;4.27;;;8.80;99.90;;;;;;5053280;28;20548;-71
2023/12/09 11:35:39;;;;;;;7.13;2.83;;;9.00;99.90;;;;;;5059543;28;20544;-71
2023/12/09 11:38:08;;;;;;;6.67;2.37;;;9.10;99.90;;;;;;5057475;28;20532;-72
2023/12/09 11:40:36;;;;;;;10.93;4.10;;;9.20;99.90;;;;;;5033074;28;20478;-69
2023/12/09 11:43:04;;;;;;;9.33;3.27;;;9.20;99.90;;;;;;5059939;28;20474;-71
2023/12/09 11:45:31;;;;;;;7.63;2.93;;;9.30;99.90;;;;;;5060227;28;20871;-71
2023/12/09 11:48:00;;;;;;;19.13;4.60;;;9.20;99.90;;;;;;5058819;28;20548;-67
2023/12/09 11:50:28;;;;;;;17.53;5.20;;;9.10;99.90;;;;;;5055839;28;21244;-68
2023/12/09 11:52:55;;;;;;;8.07;3.17;;;9.10;99.90;;;;;;5059700;28;20571;-71
2023/12/09 11:55:22;;;;;;;12.90;3.00;;;9.10;99.90;;;;;;5046595;28;20515;-70
2023/12/09 11:57:49;;;;;;;7.70;2.30;;;9.00;99.90;;;;;;5058310;28;20475;-71
2023/12/09 12:00:16;;;;;;;11.57;3.70;;;9.00;99.90;;;;;;5059901;28;20540;-67
2023/12/09 12:02:43;;;;;;;8.90;4.27;;;9.10;99.90;;;;;;5059276;28;20512;-72
2023/12/09 12:05:12;;;;;;;7.80;4.37;;;9.00;99.90;;;;;;5060853;28;20475;-71
2023/12/09 12:07:40;;;;;;;9.10;3.27;;;9.00;99.90;;;;;;5047154;28;20478;-71
2023/12/09 12:10:08;;;;;;;17.73;5.13;;;9.00;99.90;;;;;;5049125;28;20495;-70
2023/12/09 12:12:36;;;;;;;7.07;2.50;;;9.10;99.90;;;;;;5056687;28;22059;-72
2023/12/09 12:15:03;;;;;;;8.30;2.50;;;9.00;99.90;;;;;;5056811;28;20521;-72
2023/12/09 12:17:38;;;;;;;12.63;2.90;;;9.00;99.90;;;;;;5044028;28;20499;-72
2023/12/09 12:20:06;;;;;;;14.43;4.40;;;8.90;99.90;;;;;;5055794;28;20478;-73
2023/12/09 12:22:35;;;;;;;23.80;3.47;;;8.90;99.90;;;;;;5029778;28;20479;-74
2023/12/09 12:25:03;;;;;;;17.63;4.40;;;8.80;99.90;;;;;;5037777;28;20474;-72
2023/12/09 12:27:33;;;;;;;10.03;4.23;;;8.80;99.90;;;;;;5061620;28;20495;-73
2023/12/09 12:30:00;;;;;;;16.70;4.00;;;8.70;99.90;;;;;;5059107;28;20847;-74
2023/12/09 12:32:27;;;;;;;14.63;4.63;;;8.60;99.90;;;;;;5062157;28;20733;-74
2023/12/09 12:34:54;;;;;;;8.90;3.93;;;8.70;99.90;;;;;;5043063;28;20489;-74
2023/12/09 12:37:21;;;;;;;14.73;4.50;;;8.60;99.90;;;;;;5042561;28;20540;-72
2023/12/09 12:39:49;;;;;;;7.90;3.90;;;8.50;99.90;;;;;;5042889;28;20495;-72
2023/12/09 12:42:17;;;;;;;16.10;4.33;;;8.60;99.90;;;;;;5055085;28;20470;-75
2023/12/09 12:44:44;;;;;;;13.87;4.70;;;8.50;99.90;;;;;;5036723;28;20511;-73
2023/12/09 12:47:11;;;;;;;19.60;4.77;;;8.40;99.90;;;;;;5040293;28;20819;-73
2023/12/09 12:49:38;;;;;;;21.50;5.07;;;8.50;99.90;;;;;;5058788;28;21046;-73
2023/12/09 12:52:06;;;;;;;11.87;4.40;;;8.60;99.90;;;;;;5058207;28;20532;-75